Time;durP1;ratioP1;P1;durP2;ratioP2;P2;SDS_P1;SDS_P2;PMS_P1;PMS_P2;Temp;Humidity;BMP_temperature;BMP_pressure;BME280_temperature;BME280_humidity;BME280_pressure;Samples;Min_cycle;Max_cycle;Signal;HPM_P1;HPM_P2
2023/10/27 00:00:22;;;;;;;77.47;27.55;;;;;;;-146.27;88.11;83083.31;5025367;28;20025;-76
2023/10/27 00:02:47;;;;;;;84.25;27.90;;;;;;;-146.27;88.19;83055.19;5036741;28;20044;-76
2023/10/27 00:05:13;;;;;;;88.68;29.55;;;;;;;-146.27;88.48;83071.25;5028742;28;20034;-76
2023/10/27 00:07:38;;;;;;;91.35;30.58;;;;;;;-146.27;88.60;83103.41;5019993;28;20053;-76
2023/10/27 00:10:04;;;;;;;94.38;30.05;;;;;;;-146.27;88.50;83085.31;5022377;28;20026;-77
2023/10/27 00:12:29;;;;;;;85.68;29.90;;;;;;;-146.27;88.77;83099.38;5033929;28;20394;-75
2023/10/27 00:14:55;;;;;;;92.07;30.83;;;;;;;-146.27;88.60;83089.34;5029538;28;20033;-76
2023/10/27 00:17:20;;;;;;;90.40;30.77;;;;;;;-146.27;88.67;83079.28;5027191;28;20571;-76
2023/10/27 00:19:46;;;;;;;94.78;29.92;;;;;;;-146.27;88.69;83097.38;5020907;28;20033;-76
2023/10/27 00:22:11;;;;;;;88.57;29.35;;;;;;;-146.27;88.69;83105.41;5035339;28;20070;-77
2023/10/27 00:24:36;;;;;;;93.45;31.13;;;;;;;-146.27;88.88;83053.16;5033966;28;20025;-77
2023/10/27 00:27:02;;;;;;;103.60;31.65;;;;;;;-146.27;88.97;83059.19;5029333;28;20021;-77
2023/10/27 00:29:27;;;;;;;85.60;28.00;;;;;;;-146.27;88.95;83095.38;5031926;28;20029;-71
2023/10/27 00:31:53;;;;;;;92.18;29.23;;;;;;;-146.27;88.79;83059.19;5020374;28;20611;-71
2023/10/27 00:34:18;;;;;;;89.38;28.27;;;;;;;-146.27;88.97;83071.25;5026239;28;20090;-72
2023/10/27 00:36:44;;;;;;;79.13;29.40;;;;;;;-146.27;89.21;83113.44;5032766;28;20021;-72
2023/10/27 00:39:09;;;;;;;77.28;28.00;;;;;;;-146.27;88.96;83077.28;5019865;28;20029;-71
2023/10/27 00:41:35;;;;;;;86.85;28.40;;;;;;;-146.27;89.10;83103.41;5031062;28;20026;-71
2023/10/27 00:44:00;;;;;;;80.97;27.73;;;;;;;-146.27;89.16;83099.38;5031613;28;20119;-72
2023/10/27 00:46:26;;;;;;;76.45;27.55;;;;;;;-146.27;89.12;83103.41;5028468;28;20036;-72
2023/10/27 00:48:51;;;;;;;81.30;27.80;;;;;;;-146.27;89.25;83049.16;5028433;28;20425;-73
2023/10/27 00:51:17;;;;;;;78.22;26.38;;;;;;;-146.27;89.20;83095.38;5033304;28;20036;-72
2023/10/27 00:53:42;;;;;;;76.97;26.25;;;;;;;-146.27;89.11;83119.47;5033590;28;20076;-71
2023/10/27 00:56:08;;;;;;;68.47;26.52;;;;;;;-146.27;89.18;83099.38;5035889;28;20112;-71
2023/10/27 00:58:35;;;;;;;74.40;28.15;;;;;;;-146.27;89.43;83119.47;5029638;28;20032;-71
2023/10/27 01:01:01;;;;;;;74.28;26.92;;;;;;;-146.27;89.24;83099.38;5031726;28;20024;-73
2023/10/27 01:03:27;;;;;;;77.95;28.60;;;;;;;-146.27;89.16;83091.34;5027065;28;20105;-72
2023/10/27 01:05:52;;;;;;;72.70;27.77;;;;;;;-146.27;89.33;83087.31;5022496;28;20105;-71
2023/10/27 01:08:18;;;;;;;61.00;24.70;;;;;;;-146.27;89.35;83091.34;5023931;28;20095;-71
2023/10/27 01:10:43;;;;;;;72.80;25.60;;;;;;;-146.27;89.23;83109.44;5020624;28;20021;-72
2023/10/27 01:13:08;;;;;;;71.03;25.40;;;;;;;-146.27;89.34;83091.34;5035511;28;20397;-72
2023/10/27 01:15:34;;;;;;;63.85;25.70;;;;;;;-146.27;89.51;83087.31;5020924;28;20046;-71
2023/10/27 01:17:59;;;;;;;63.35;24.52;;;;;;;-146.27;89.48;83089.34;5018124;28;20065;-71
2023/10/27 01:20:25;;;;;;;62.55;24.30;;;;;;;-146.27;89.55;83111.44;5037690;28;20032;-71
2023/10/27 01:22:50;;;;;;;66.22;24.23;;;;;;;-146.27;89.61;83103.41;5023124;28;20029;-71
2023/10/27 01:25:16;;;;;;;51.83;21.63;;;;;;;-146.27;89.58;83101.38;5034277;28;20105;-72
2023/10/27 01:27:42;;;;;;;55.63;23.40;;;;;;;-146.27;89.47;83087.31;5032180;28;20512;-71
2023/10/27 01:30:09;;;;;;;56.03;22.50;;;;;;;-146.27;89.58;83105.41;5032747;28;20025;-71
2023/10/27 01:32:36;;;;;;;60.30;23.60;;;;;;;-146.27;89.71;83095.38;5016287;28;20034;-72
2023/10/27 01:35:02;;;;;;;53.28;22.67;;;;;;;-146.27;89.70;83111.44;5037576;28;20108;-71
2023/10/27 01:37:27;;;;;;;57.45;23.08;;;;;;;-146.27;89.84;83119.47;5025576;28;20195;-71
2023/10/27 01:39:52;;;;;;;57.55;23.08;;;;;;;-146.27;89.80;83067.25;5031546;28;20053;-76
2023/10/27 01:42:18;;;;;;;56.15;22.48;;;;;;;-146.27;89.93;83073.25;5032761;28;20033;-76
2023/10/27 01:44:43;;;;;;;55.42;23.10;;;;;;;-146.27;89.96;83117.47;5031044;28;20059;-76
2023/10/27 01:47:08;;;;;;;52.42;22.80;;;;;;;-146.27;90.07;83151.63;5026697;28;20033;-75
2023/10/27 01:49:34;;;;;;;51.42;22.55;;;;;;;-146.27;90.00;83119.47;5036087;28;20163;-76
2023/10/27 01:51:59;;;;;;;51.08;21.85;;;;;;;-146.27;89.90;83105.41;5031407;28;20109;-76
2023/10/27 01:54:24;;;;;;;52.15;22.10;;;;;;;-146.27;89.97;83075.28;5024009;28;20033;-76
2023/10/27 01:56:50;;;;;;;50.85;21.75;;;;;;;-146.27;89.89;83093.34;5039140;28;20136;-77
2023/10/27 01:59:15;;;;;;;49.80;21.02;;;;;;;-146.27;90.03;83115.47;5032912;28;20044;-76
2023/10/27 02:01:40;;;;;;;49.90;22.30;;;;;;;-146.27;89.96;83095.38;5036685;28;20553;-76
2023/10/27 02:04:06;;;;;;;48.88;21.13;;;;;;;-146.27;90.03;83041.13;5022174;28;20048;-76
2023/10/27 02:06:31;;;;;;;46.88;21.02;;;;;;;-146.27;89.84;83107.41;5023620;28;20094;-76
2023/10/27 02:08:57;;;;;;;46.55;20.52;;;;;;;-146.27;89.75;83043.13;5024022;28;20524;-77
2023/10/27 02:11:23;;;;;;;48.88;21.00;;;;;;;-146.27;89.89;83139.56;5021157;28;20028;-77
2023/10/27 02:13:49;;;;;;;48.95;20.20;;;;;;;-146.27;89.76;83087.31;5019776;28;20047;-76
2023/10/27 02:16:14;;;;;;;47.47;21.33;;;;;;;-146.27;89.83;83105.41;5028133;28;20037;-75
2023/10/27 02:18:40;;;;;;;52.40;20.75;;;;;;;-146.27;89.96;83121.47;5023432;28;20045;-76
2023/10/27 02:21:05;;;;;;;52.58;19.63;;;;;;;-146.27;89.96;83139.56;5018840;28;20085;-76
2023/10/27 02:23:30;;;;;;;42.30;18.60;;;;;;;-146.27;90.07;83131.53;5025840;28;20024;-76
2023/10/27 02:25:56;;;;;;;45.03;20.75;;;;;;;-146.27;90.07;83113.44;5014142;28;20583;-76
2023/10/27 02:28:21;;;;;;;44.30;19.17;;;;;;;-146.27;90.16;83123.50;5026678;28;20104;-76
2023/10/27 02:30:46;;;;;;;45.47;19.33;;;;;;;-146.27;90.12;83097.38;5030971;28;20385;-75
2023/10/27 02:33:13;;;;;;;39.85;18.60;;;;;;;-146.27;90.13;83079.28;5033161;28;20107;-75
2023/10/27 02:35:38;;;;;;;45.78;19.33;;;;;;;-146.27;90.23;83149.63;5024031;28;20109;-76
2023/10/27 02:38:04;;;;;;;43.33;20.15;;;;;;;-146.27;90.40;83135.53;5017260;28;20096;-76
2023/10/27 02:40:30;;;;;;;41.15;19.10;;;;;;;-146.27;90.35;83151.63;5030428;28;20570;-75
2023/10/27 02:42:55;;;;;;;40.70;18.83;;;;;;;-146.27;90.43;83133.53;5041563;28;20029;-76
2023/10/27 02:45:21;;;;;;;43.45;17.75;;;;;;;-146.27;90.37;83099.38;5032256;28;20029;-75
2023/10/27 02:47:47;;;;;;;42.50;16.52;;;;;;;-146.27;90.37;83115.47;5022432;28;20485;-75
2023/10/27 02:50:13;;;;;;;35.72;16.98;;;;;;;-146.27;90.29;83109.44;5042502;28;20033;-71
2023/10/27 02:52:39;;;;;;;33.33;16.50;;;;;;;-146.27;90.40;83109.44;5048853;28;20024;-72
2023/10/27 02:55:05;;;;;;;32.35;15.00;;;;;;;-146.27;90.41;83107.41;5029758;28;20116;-71
2023/10/27 02:57:30;;;;;;;32.45;15.75;;;;;;;-146.27;90.24;83115.47;5031554;28;20060;-72
2023/10/27 02:59:57;;;;;;;31.63;14.48;;;;;;;-146.27;90.39;83123.50;5027049;28;20053;-71
2023/10/27 03:02:23;;;;;;;31.17;14.02;;;;;;;-146.27;90.29;83091.34;5023548;28;20064;-70
2023/10/27 03:04:49;;;;;;;26.23;13.93;;;;;;;-146.27;90.21;83101.38;5044495;28;20492;-70
2023/10/27 03:07:16;;;;;;;34.22;14.23;;;;;;;-146.27;90.21;83079.28;5033029;28;20028;-71
2023/10/27 03:09:41;;;;;;;28.77;13.32;;;;;;;-146.27;90.25;83095.38;5028110;28;20033;-71
2023/10/27 03:12:07;;;;;;;30.95;13.43;;;;;;;-146.27;90.42;83123.50;5025468;28;20017;-72
2023/10/27 03:14:33;;;;;;;30.35;13.98;;;;;;;-146.27;90.37;83089.34;5026881;28;20032;-72
2023/10/27 03:16:58;;;;;;;32.28;14.50;;;;;;;-146.27;90.35;83093.34;5034843;28;20493;-72
2023/10/27 03:19:23;;;;;;;27.65;12.77;;;;;;;-146.27;90.50;83131.53;5027687;28;20037;-72
2023/10/27 03:21:49;;;;;;;34.03;14.20;;;;;;;-146.27;90.53;83143.59;5017936;28;20045;-72
2023/10/27 03:24:14;;;;;;;25.52;12.05;;;;;;;-146.27;90.55;83111.44;5023764;28;20481;-72
2023/10/27 03:26:40;;;;;;;25.95;11.45;;;;;;;-146.27;90.45;83091.34;5022679;28;20033;-73
2023/10/27 03:29:05;;;;;;;24.83;10.18;;;;;;;-146.27;90.20;83095.38;5030940;28;20020;-73
2023/10/27 03:31:31;;;;;;;17.50;9.23;;;;;;;-146.27;90.10;83047.16;5031977;28;20071;-73
2023/10/27 03:33:59;;;;;;;21.52;10.18;;;;;;;-146.27;90.09;83087.31;5024904;28;20388;-72
2023/10/27 03:36:28;;;;;;;20.33;9.73;;;;;;;-146.27;90.09;83135.53;5028471;28;20106;-72
2023/10/27 03:38:53;;;;;;;16.92;9.13;;;;;;;-146.27;90.11;83121.47;5024311;28;20599;-72
2023/10/27 03:41:19;;;;;;;19.75;8.77;;;;;;;-146.27;90.04;83141.56;5046032;28;20029;-72
2023/10/27 03:43:44;;;;;;;17.85;8.55;;;;;;;-146.27;90.19;83143.59;5016672;28;20458;-72
2023/10/27 03:46:10;;;;;;;17.60;8.38;;;;;;;-146.27;90.34;83071.25;5027519;28;20048;-72
2023/10/27 03:48:36;;;;;;;20.17;8.43;;;;;;;-146.27;90.46;83117.47;5025880;28;20037;-72
2023/10/27 03:51:05;;;;;;;22.38;9.02;;;;;;;-146.27;90.48;83123.50;5035470;28;20025;-71
2023/10/27 03:53:31;;;;;;;15.60;7.88;;;;;;;-146.27;90.56;83105.41;5035999;28;20429;-72
2023/10/27 03:55:57;;;;;;;21.38;8.90;;;;;;;-146.27;90.45;83107.41;5028443;28;20025;-72
2023/10/27 03:58:22;;;;;;;20.75;8.95;;;;;;;-146.27;90.61;83095.38;5033705;28;20103;-72
2023/10/27 04:00:47;;;;;;;21.27;9.13;;;;;;;-146.27;90.57;83115.47;5040700;28;20026;-72
2023/10/27 04:03:13;;;;;;;20.10;9.20;;;;;;;-146.27;90.65;83101.38;5031694;28;20156;-73
2023/10/27 04:05:39;;;;;;;21.85;10.45;;;;;;;-146.27;90.94;83131.53;5032919;28;20036;-72
2023/10/27 04:08:07;;;;;;;21.52;10.98;;;;;;;-146.27;90.61;83115.47;5025453;28;20022;-73
2023/10/27 04:10:34;;;;;;;23.30;11.30;;;;;;;-146.27;90.58;83115.47;5033843;28;20047;-72
2023/10/27 04:13:00;;;;;;;22.77;11.07;;;;;;;-146.27;90.74;83141.56;5019703;28;20025;-72
2023/10/27 04:15:26;;;;;;;24.25;11.05;;;;;;;-146.27;90.79;83135.53;5032508;28;20027;-72
2023/10/27 04:17:51;;;;;;;23.58;11.40;;;;;;;-146.27;90.63;83117.47;5029776;28;20083;-74
2023/10/27 04:20:17;;;;;;;26.08;11.50;;;;;;;-146.27;90.61;83047.16;5021081;28;20033;-72
2023/10/27 04:22:42;;;;;;;28.10;11.57;;;;;;;-146.27;90.70;83109.44;5030481;28;20509;-73
2023/10/27 04:25:09;;;;;;;31.95;13.02;;;;;;;-146.27;90.58;83121.47;5031389;28;20033;-72
2023/10/27 04:27:36;;;;;;;28.48;12.63;;;;;;;-146.27;90.67;83143.59;5029696;28;20054;-72
2023/10/27 04:30:04;;;;;;;28.27;12.55;;;;;;;-146.27;90.61;83079.28;5018475;28;20026;-72
2023/10/27 04:32:29;;;;;;;27.23;12.63;;;;;;;-146.27;90.65;83111.44;5029274;28;20542;-72
2023/10/27 04:34:56;;;;;;;30.10;13.65;;;;;;;-146.27;90.56;83087.31;5026580;28;20034;-72
2023/10/27 04:37:21;;;;;;;32.78;14.63;;;;;;;-146.27;90.75;83137.56;5037140;28;20024;-72
2023/10/27 04:39:47;;;;;;;30.67;13.10;;;;;;;-146.27;90.70;83115.47;5026005;28;20358;-72
2023/10/27 04:42:12;;;;;;;32.60;12.82;;;;;;;-146.27;90.71;83077.28;5049065;28;20492;-72
2023/10/27 04:44:38;;;;;;;28.83;13.77;;;;;;;-146.27;90.54;83127.50;5029523;28;20462;-73
2023/10/27 04:47:04;;;;;;;30.55;13.38;;;;;;;-146.27;90.60;83119.47;5034803;28;20059;-72
2023/10/27 04:49:29;;;;;;;35.58;13.70;;;;;;;-146.27;90.81;83151.63;5027304;28;20032;-73
2023/10/27 04:51:55;;;;;;;35.00;13.75;;;;;;;-146.27;90.88;83115.47;5039695;28;20032;-74
2023/10/27 04:54:20;;;;;;;35.75;13.90;;;;;;;-146.27;90.77;83107.41;5046139;28;20412;-73
2023/10/27 04:56:45;;;;;;;30.35;12.82;;;;;;;-146.27;90.86;83123.50;5022972;28;20034;-72
2023/10/27 04:59:11;;;;;;;32.45;12.73;;;;;;;-146.27;90.71;83099.38;5026880;28;20386;-73
2023/10/27 05:01:36;;;;;;;26.30;12.27;;;;;;;-146.27;90.73;83101.38;5031139;28;20390;-73
2023/10/27 05:04:02;;;;;;;30.75;13.07;;;;;;;-146.27;90.70;83087.31;5029104;28;20543;-73
2023/10/27 05:06:30;;;;;;;30.90;13.32;;;;;;;-146.27;90.71;83135.53;5028417;28;20037;-73
2023/10/27 05:08:55;;;;;;;29.02;13.15;;;;;;;-146.27;90.80;83095.38;5039641;28;20072;-72
2023/10/27 05:11:21;;;;;;;28.23;13.18;;;;;;;-146.27;90.85;83143.59;5023944;28;20049;-72
2023/10/27 05:13:46;;;;;;;29.05;12.27;;;;;;;-146.27;90.73;83115.47;5019344;28;20071;-72
2023/10/27 05:16:12;;;;;;;30.40;12.68;;;;;;;-146.27;90.85;83123.50;5018835;28;20467;-73
2023/10/27 05:18:37;;;;;;;34.45;13.40;;;;;;;-146.27;90.92;83107.41;5027500;28;20037;-73
2023/10/27 05:21:03;;;;;;;26.90;12.57;;;;;;;-146.27;90.84;83095.38;5021632;28;20481;-72
2023/10/27 05:23:28;;;;;;;33.22;14.23;;;;;;;-146.27;90.96;83107.41;5013990;28;20103;-73
2023/10/27 05:25:53;;;;;;;34.33;13.48;;;;;;;-146.27;90.97;83139.56;5018040;28;20032;-73
2023/10/27 05:28:19;;;;;;;31.40;11.98;;;;;;;-146.27;90.96;83119.47;5024602;28;20508;-72
2023/10/27 05:30:46;;;;;;;33.88;13.57;;;;;;;-146.27;91.16;83123.50;5029692;28;20021;-73
2023/10/27 05:33:12;;;;;;;37.28;13.93;;;;;;;-146.27;91.15;83089.34;5029929;28;20029;-72
2023/10/27 05:35:38;;;;;;;33.25;13.63;;;;;;;-146.27;91.10;83115.47;5024633;28;20442;-73
2023/10/27 05:38:03;;;;;;;34.22;12.68;;;;;;;-146.27;91.17;83135.53;5027068;28;20159;-74
2023/10/27 05:40:32;;;;;;;31.63;13.38;;;;;;;-146.27;91.27;83099.38;5033013;28;20383;-72
2023/10/27 05:42:58;;;;;;;35.38;13.90;;;;;;;-146.27;91.28;83133.53;5028496;28;20022;-73
2023/10/27 05:45:23;;;;;;;35.25;13.23;;;;;;;-146.27;91.26;83135.53;5038036;28;20037;-72
2023/10/27 05:47:49;;;;;;;38.90;13.98;;;;;;;-146.27;91.37;83103.41;5030882;28;20383;-72
2023/10/27 05:50:14;;;;;;;38.70;14.20;;;;;;;-146.27;91.32;83109.44;5010637;28;20585;-73
2023/10/27 05:52:39;;;;;;;35.88;12.82;;;;;;;-146.27;91.23;83119.47;5017358;28;20104;-72
2023/10/27 05:55:05;;;;;;;29.63;12.38;;;;;;;-146.27;91.35;83117.47;5021433;28;20056;-74
2023/10/27 05:57:32;;;;;;;29.30;11.75;;;;;;;-146.27;91.32;83107.41;5029596;28;20090;-72
2023/10/27 05:59:57;;;;;;;29.05;12.13;;;;;;;-146.27;91.37;83083.31;5021152;28;20026;-73
2023/10/27 06:02:23;;;;;;;37.58;13.57;;;;;;;-146.27;91.29;83147.59;5028230;28;20056;-78
2023/10/27 06:04:48;;;;;;;31.33;12.32;;;;;;;-146.27;91.33;83107.41;5027978;28;20041;-77
2023/10/27 06:07:15;;;;;;;34.53;12.68;;;;;;;-146.27;91.34;83097.38;5023682;28;20036;-77
2023/10/27 06:09:41;;;;;;;31.15;13.23;;;;;;;-146.27;91.23;83051.16;5025767;28;20029;-75
2023/10/27 06:12:09;;;;;;;33.47;13.30;;;;;;;-146.27;91.33;83133.53;5034118;28;20079;-75
2023/10/27 06:14:34;;;;;;;28.13;11.85;;;;;;;-146.27;91.23;83135.53;5028321;28;20040;-76
2023/10/27 06:16:59;;;;;;;33.97;13.18;;;;;;;-146.27;91.23;83147.59;5026271;28;20114;-77
2023/10/27 06:19:25;;;;;;;32.92;12.82;;;;;;;-146.27;91.32;83105.41;5036274;28;20037;-77
2023/10/27 06:21:50;;;;;;;37.50;12.85;;;;;;;-146.27;91.30;83115.47;5027633;28;20022;-76
2023/10/27 06:24:16;;;;;;;35.38;13.18;;;;;;;-146.27;91.33;83145.59;5028587;28;20796;-77
2023/10/27 06:26:42;;;;;;;34.70;12.55;;;;;;;-146.27;91.33;83117.47;5038129;28;20033;-77
2023/10/27 06:29:07;;;;;;;33.95;13.18;;;;;;;-146.27;91.46;83133.53;5036788;28;20362;-77
2023/10/27 06:31:33;;;;;;;33.47;13.40;;;;;;;-146.27;91.49;83123.50;5038075;28;20032;-76
2023/10/27 06:33:58;;;;;;;43.28;14.80;;;;;;;-146.27;91.55;83037.09;5036495;28;20104;-77
2023/10/27 06:36:25;;;;;;;39.78;13.93;;;;;;;-146.27;91.62;83135.53;5021103;28;20505;-77
2023/10/27 06:38:50;;;;;;;33.97;13.10;;;;;;;-146.27;91.56;83083.31;5028482;28;20385;-76
2023/10/27 06:41:16;;;;;;;39.75;13.63;;;;;;;-146.27;91.60;83119.47;5024758;28;20029;-76
2023/10/27 06:43:42;;;;;;;39.75;15.27;;;;;;;-146.27;91.53;83123.50;5017364;28;20366;-75
2023/10/27 06:46:08;;;;;;;35.55;14.13;;;;;;;-146.27;91.38;83133.53;5020062;28;20158;-76
2023/10/27 06:48:34;;;;;;;35.47;13.93;;;;;;;-146.27;91.44;83135.53;5029382;28;20112;-75
2023/10/27 06:50:59;;;;;;;39.00;14.63;;;;;;;-146.27;91.52;83119.47;5028949;28;20730;-75
2023/10/27 06:53:24;;;;;;;45.08;14.98;;;;;;;-146.27;91.46;83135.53;5037364;28;20603;-76
2023/10/27 06:55:50;;;;;;;38.00;13.88;;;;;;;-146.27;91.49;83103.41;5022693;28;20057;-77
2023/10/27 06:58:15;;;;;;;39.17;13.63;;;;;;;-146.27;91.48;83143.59;5020778;28;20052;-75
2023/10/27 07:00:40;;;;;;;34.83;14.30;;;;;;;-146.27;91.54;83145.59;5025829;28;20501;-75
2023/10/27 07:03:06;;;;;;;42.03;13.68;;;;;;;-146.27;91.65;83141.56;5029611;28;20017;-75
2023/10/27 07:05:31;;;;;;;38.47;14.35;;;;;;;-146.27;91.60;83133.53;5029191;28;20037;-73
2023/10/27 07:07:56;;;;;;;38.60;14.10;;;;;;;-146.27;91.58;83095.38;5029919;28;20048;-74
2023/10/27 07:10:22;;;;;;;42.78;14.43;;;;;;;-146.27;91.59;83139.56;5031827;28;20029;-74
2023/10/27 07:12:47;;;;;;;36.13;13.88;;;;;;;-146.27;91.62;83147.59;5032972;28;20025;-75
2023/10/27 07:15:13;;;;;;;41.17;14.27;;;;;;;-146.27;91.64;83129.53;5034648;28;20025;-75
2023/10/27 07:17:39;;;;;;;43.17;14.75;;;;;;;-146.27;91.66;83123.50;5036630;28;20537;-74
2023/10/27 07:20:05;;;;;;;41.05;14.40;;;;;;;-146.27;91.66;83121.47;5049409;28;20035;-75
2023/10/27 07:22:30;;;;;;;40.03;14.20;;;;;;;-146.27;91.75;83123.50;5036406;28;20033;-76
2023/10/27 07:24:56;;;;;;;39.78;14.10;;;;;;;-146.27;91.65;83107.41;5032779;28;20030;-74
2023/10/27 07:27:21;;;;;;;35.72;13.07;;;;;;;-146.27;91.71;83147.59;5034367;28;20112;-73
2023/10/27 07:29:47;;;;;;;40.08;15.40;;;;;;;-146.27;91.66;83111.44;5031754;28;20026;-78
2023/10/27 07:32:12;;;;;;;43.05;14.50;;;;;;;-146.27;91.69;83079.28;5033249;28;20036;-76
2023/10/27 07:34:38;;;;;;;45.55;14.90;;;;;;;-146.27;91.60;83143.59;5032160;28;20045;-75
2023/10/27 07:37:06;;;;;;;39.03;15.35;;;;;;;-146.27;91.66;83139.56;5036276;28;20540;-75
2023/10/27 07:39:32;;;;;;;41.42;14.60;;;;;;;-146.27;91.64;83107.41;5039109;28;20568;-75
2023/10/27 07:41:57;;;;;;;43.00;13.63;;;;;;;-146.27;91.66;83099.38;5047302;28;20025;-73
2023/10/27 07:44:23;;;;;;;47.00;14.98;;;;;;;-146.27;91.77;83135.53;5038225;28;20075;-73
2023/10/27 07:46:48;;;;;;;43.50;14.57;;;;;;;-146.27;91.73;83107.41;5032580;28;20520;-72
2023/10/27 07:49:13;;;;;;;41.75;15.55;;;;;;;-146.27;91.72;83097.38;5040461;28;20495;-74
2023/10/27 07:51:39;;;;;;;43.78;15.45;;;;;;;-146.27;91.74;83099.38;5032529;28;20116;-75
2023/10/27 07:54:04;;;;;;;37.53;13.93;;;;;;;-146.27;91.60;83099.38;5030637;28;20444;-73
2023/10/27 07:56:32;;;;;;;37.95;14.00;;;;;;;-146.27;91.65;83135.53;5030179;28;20048;-74
2023/10/27 07:58:58;;;;;;;39.60;15.90;;;;;;;-146.27;91.62;83137.56;5030939;28;20385;-75
2023/10/27 08:01:24;;;;;;;44.55;15.63;;;;;;;-146.27;91.71;83103.41;5039381;28;20013;-73
2023/10/27 08:03:50;;;;;;;38.88;14.93;;;;;;;-146.27;91.75;83103.41;5048008;28;20051;-78
2023/10/27 08:06:16;;;;;;;43.55;14.80;;;;;;;-146.27;91.77;83107.41;5035427;28;20520;-77
2023/10/27 08:08:42;;;;;;;45.45;14.65;;;;;;;-146.27;91.79;83123.50;5042171;28;20032;-78
2023/10/27 08:11:07;;;;;;;37.15;13.75;;;;;;;-146.27;91.67;83091.34;5040226;28;20033;-78
2023/10/27 08:13:33;;;;;;;43.45;15.20;;;;;;;-146.27;91.68;83077.28;5039105;28;20137;-77
2023/10/27 08:16:02;;;;;;;38.50;13.88;;;;;;;-146.27;91.58;83095.38;5031535;28;20099;-75
2023/10/27 08:18:28;;;;;;;40.42;14.27;;;;;;;-146.27;91.56;83081.31;5032522;28;20079;-75
2023/10/27 08:20:55;;;;;;;37.33;14.68;;;;;;;-146.27;91.53;83079.28;5034082;28;20393;-74
2023/10/27 08:23:20;;;;;;;47.00;14.93;;;;;;;-146.27;91.64;83091.34;5033917;28;20032;-75
2023/10/27 08:25:51;;;;;;;36.40;14.25;;;;;;;-146.27;91.68;83075.28;5034113;28;20476;-76
2023/10/27 08:28:18;;;;;;;31.95;12.88;;;;;;;-146.27;91.62;83075.28;5035276;28;20052;-75
2023/10/27 08:30:44;;;;;;;34.17;12.65;;;;;;;-146.27;91.65;83095.38;5046573;28;20052;-76
2023/10/27 08:33:10;;;;;;;28.92;11.38;;;;;;;-146.27;91.55;83083.31;5043681;28;20487;-75
2023/10/27 08:35:35;;;;;;;30.80;12.35;;;;;;;-146.27;91.42;83135.53;5026608;28;20108;-76
2023/10/27 08:38:00;;;;;;;32.42;11.55;;;;;;;-146.27;91.46;83105.41;5049890;28;20036;-77
2023/10/27 08:40:27;;;;;;;25.85;11.10;;;;;;;-146.27;91.51;83095.38;5032895;28;20582;-75
2023/10/27 08:42:55;;;;;;;24.85;10.77;;;;;;;-146.27;91.48;83045.13;5032005;28;20025;-75
2023/10/27 08:45:22;;;;;;;27.77;11.80;;;;;;;-146.27;91.48;83097.38;5033998;28;20477;-76
2023/10/27 08:47:48;;;;;;;29.92;11.48;;;;;;;-146.27;91.49;83063.22;5033754;28;20025;-75
2023/10/27 08:50:13;;;;;;;27.55;10.55;;;;;;;-146.27;91.53;83079.28;5052369;28;20453;-75
2023/10/27 08:52:39;;;;;;;29.88;10.95;;;;;;;-146.27;91.49;83057.19;5047716;28;20029;-76
2023/10/27 08:55:10;;;;;;;27.33;9.55;;;;;;;-146.27;91.53;83085.31;5038393;28;20513;-75
2023/10/27 08:57:36;;;;;;;27.00;9.25;;;;;;;-146.27;91.49;83075.28;5032934;28;20053;-75
2023/10/27 09:00:05;;;;;;;17.90;7.90;;;;;;;-146.27;91.59;83049.16;5043429;28;20020;-75
2023/10/27 09:02:32;;;;;;;21.13;8.25;;;;;;;-146.27;91.59;83077.28;5052157;28;20029;-75
2023/10/27 09:05:03;;;;;;;23.40;8.48;;;;;;;-146.27;91.64;83063.22;5044312;28;20406;-76
2023/10/27 09:07:32;;;;;;;23.13;8.68;;;;;;;-146.27;91.58;83047.16;5044742;28;20059;-75
2023/10/27 09:09:59;;;;;;;18.08;8.32;;;;;;;-146.27;91.49;83071.25;5036415;28;20057;-75
2023/10/27 09:12:27;;;;;;;19.55;7.53;;;;;;;-146.27;91.65;83057.19;5034668;28;20025;-75
2023/10/27 09:15:06;;;;;;;23.63;8.43;;;;;;;-146.27;91.63;83081.31;5032738;28;20078;-75
2023/10/27 09:17:57;;;;;;;20.95;8.52;;;;;;;-146.27;91.62;83083.31;5029999;28;20061;-75
2023/10/27 09:20:24;;;;;;;15.10;6.63;;;;;;;-146.27;91.72;83107.41;5029675;28;20072;-75
2023/10/27 09:23:01;;;;;;;18.08;6.03;;;;;;;-146.27;91.63;83051.16;5031905;28;20025;-75
2023/10/27 09:25:29;;;;;;;12.38;6.30;;;;;;;-146.27;91.59;83093.34;5048997;28;20416;-77
2023/10/27 09:27:55;;;;;;;17.05;6.80;;;;;;;-146.27;91.59;83047.16;5033518;28;20615;-76
2023/10/27 09:30:27;;;;;;;17.02;7.18;;;;;;;-146.27;91.59;83099.38;5041387;28;20095;-77
2023/10/27 09:32:52;;;;;;;21.00;6.95;;;;;;;-146.27;91.66;83047.16;5026092;28;20033;-77
2023/10/27 09:35:18;;;;;;;17.58;7.30;;;;;;;-146.27;91.65;83065.22;5038219;28;20508;-76
2023/10/27 09:37:46;;;;;;;17.70;7.72;;;;;;;-146.27;91.72;83083.31;5037642;28;20074;-75
2023/10/27 09:40:13;;;;;;;14.70;7.13;;;;;;;-146.27;91.74;83083.31;5039995;28;20052;-75
2023/10/27 09:43:01;;;;;;;15.60;7.18;;;;;;;-146.27;91.61;83053.16;5044997;28;20096;-75
2023/10/27 09:45:28;;;;;;;16.65;6.82;;;;;;;-146.27;91.49;83033.09;5035892;28;20035;-75
2023/10/27 09:48:03;;;;;;;18.38;7.10;;;;;;;-146.27;91.64;83041.13;5029716;28;20021;-75
2023/10/27 09:50:30;;;;;;;17.45;7.45;;;;;;;-146.27;91.45;83039.09;5031230;28;20041;-76
2023/10/27 09:53:00;;;;;;;19.25;8.07;;;;;;;-146.27;91.58;83027.06;5039132;28;20025;-76
2023/10/27 09:55:33;;;;;;;14.80;7.53;;;;;;;-146.27;91.43;83047.16;5028884;28;20029;-76
2023/10/27 09:58:01;;;;;;;23.50;8.27;;;;;;;-146.27;91.57;83051.16;5033999;28;20028;-72
2023/10/27 10:00:28;;;;;;;20.50;8.50;;;;;;;-146.27;91.53;83049.16;5030323;28;20049;-76
2023/10/27 10:02:56;;;;;;;17.00;7.45;;;;;;;-146.27;91.47;83059.19;5041047;28;20029;-73
2023/10/27 10:05:23;;;;;;;23.20;7.40;;;;;;;-146.27;91.49;83039.09;5023311;28;20025;-71
2023/10/27 10:07:52;;;;;;;22.52;7.82;;;;;;;-146.27;91.37;83025.03;5018233;28;20120;-73
2023/10/27 10:10:33;;;;;;;15.60;7.57;;;;;;;-146.27;91.25;83015.00;5035833;28;20028;-74
2023/10/27 10:13:12;;;;;;;10.27;4.95;;;;;;;-146.27;91.16;83010.97;5038637;28;20461;-70
2023/10/27 10:15:45;;;;;;;8.82;4.47;;;;;;;-146.27;90.93;83043.13;5028512;28;20203;-72
2023/10/27 10:18:19;;;;;;;14.02;5.18;;;;;;;-146.27;90.83;83071.25;5032284;28;20049;-72
2023/10/27 10:20:45;;;;;;;11.07;5.07;;;;;;;-146.27;91.03;83095.38;5024101;28;20025;-73
2023/10/27 10:23:11;;;;;;;12.52;5.38;;;;;;;-146.27;91.12;83077.28;5025364;28;20044;-73
2023/10/27 10:25:50;;;;;;;15.15;6.30;;;;;;;-146.27;91.07;83057.19;5022102;28;20048;-73
2023/10/27 10:28:18;;;;;;;9.85;5.30;;;;;;;-146.27;91.37;83055.19;5024059;28;20509;-71
2023/10/27 10:30:45;;;;;;;14.20;5.88;;;;;;;-146.27;91.34;83107.41;5036200;28;20123;-72
2023/10/27 10:33:16;;;;;;;12.52;5.40;;;;;;;-146.27;91.28;83091.34;5028465;28;20022;-71
2023/10/27 10:35:46;;;;;;;10.95;5.00;;;;;;;-146.27;91.29;83047.16;5012376;28;20075;-72
2023/10/27 10:38:35;;;;;;;13.35;5.57;;;;;;;-146.27;91.24;83045.13;5031620;28;20056;-72
2023/10/27 10:41:02;;;;;;;11.68;5.28;;;;;;;-146.27;91.31;83053.16;5029189;28;20041;-72
2023/10/27 10:43:34;;;;;;;10.20;5.30;;;;;;;-146.27;91.38;83051.16;5028351;28;20021;-72
2023/10/27 10:46:01;;;;;;;10.98;5.85;;;;;;;-146.27;91.38;83085.31;5019141;28;20029;-72
2023/10/27 10:48:29;;;;;;;9.98;4.47;;;;;;;-146.27;91.45;83027.06;5043800;28;20021;-72
2023/10/27 10:50:59;;;;;;;11.95;5.53;;;;;;;-146.27;91.34;83037.09;5049724;28;20040;-71
2023/10/27 10:53:25;;;;;;;9.73;5.22;;;;;;;-146.27;91.47;83000.94;5041358;28;20053;-71
2023/10/27 10:55:55;;;;;;;8.68;4.80;;;;;;;-146.27;91.39;83045.13;5033728;28;20063;-71
2023/10/27 10:58:34;;;;;;;10.23;4.78;;;;;;;-146.27;91.56;82978.84;5036289;28;20035;-76
2023/10/27 11:01:00;;;;;;;14.40;6.28;;;;;;;-146.27;91.62;82986.88;5051776;28;20028;-75